Los Angeles AFB, California
Current Conditions -  °F | °C
As of 9:53 AM on Friday 24 Oct 2014 (Local Time) from KLAX Reporting Station
Few Clouds Few Clouds  
Wind Chill: 72°   Ceiling: Unl
Heat Index: 72°   Visibility: 9mi
Dew Point: 52°   Wind: 6mph
Humidity: 49%   Direction: 130°SE
Pressure: 29.99"   Gusts: NA
Location:  33.9451°N, 118.383°W
Report Text: KLAX 241653Z 13005KT 9SM FEW250 22/11 A2999 RMK AO2 SLP154 T02220111 $
Loading
Personal Weather Stations






























Interactive Weather Map
Tropical Storm Tracking
New forecast layout! Learn more

10-Day Weather Forecast

Advertisements
Track Severe Weather on mobile